sensor_id;sensor_type;location;lat;lon;timestamp;temperature;humidity
9437;DHT22;4757;59.334;18.034;2023-04-12T00:00:08;6.50;99.90
9437;DHT22;4757;59.334;18.034;2023-04-12T00:02:38;6.70;99.90
9437;DHT22;4757;59.334;18.034;2023-04-12T00:05:06;6.90;99.90
9437;DHT22;4757;59.334;18.034;2023-04-12T00:07:35;6.90;99.90
9437;DHT22;4757;59.334;18.034;2023-04-12T00:10:06;6.90;99.90
9437;DHT22;4757;59.334;18.034;2023-04-12T00:12:34;6.90;99.90
9437;DHT22;4757;59.334;18.034;2023-04-12T00:15:01;6.90;99.90
9437;DHT22;4757;59.334;18.034;2023-04-12T00:17:28;6.90;99.90
9437;DHT22;4757;59.334;18.034;2023-04-12T00:19:55;7.00;99.90
9437;DHT22;4757;59.334;18.034;2023-04-12T00:22:24;7.10;99.90
9437;DHT22;4757;59.334;18.034;2023-04-12T00:24:52;7.10;99.90
9437;DHT22;4757;59.334;18.034;2023-04-12T00:27:19;7.10;99.90
9437;DHT22;4757;59.334;18.034;2023-04-12T00:29:46;7.20;99.90
9437;DHT22;4757;59.334;18.034;2023-04-12T00:32:13;7.20;99.90
9437;DHT22;4757;59.334;18.034;2023-04-12T00:34:40;7.30;99.90
9437;DHT22;4757;59.334;18.034;2023-04-12T00:37:07;7.30;99.90
9437;DHT22;4757;59.334;18.034;2023-04-12T00:39:34;7.30;99.90
9437;DHT22;4757;59.334;18.034;2023-04-12T00:42:05;7.30;99.90
9437;DHT22;4757;59.334;18.034;2023-04-12T00:44:32;7.30;99.90
9437;DHT22;4757;59.334;18.034;2023-04-12T00:47:01;7.50;99.90
9437;DHT22;4757;59.334;18.034;2023-04-12T00:49:30;7.60;99.90
9437;DHT22;4757;59.334;18.034;2023-04-12T00:51:59;7.50;99.90
9437;DHT22;4757;59.334;18.034;2023-04-12T00:54:30;7.40;99.90
9437;DHT22;4757;59.334;18.034;2023-04-12T00:57:02;7.30;99.90
9437;DHT22;4757;59.334;18.034;2023-04-12T00:59:29;7.30;99.90
9437;DHT22;4757;59.334;18.034;2023-04-12T01:01:57;7.20;99.90
9437;DHT22;4757;59.334;18.034;2023-04-12T01:04:25;7.30;99.90
9437;DHT22;4757;59.334;18.034;2023-04-12T01:10:31;7.40;99.90
9437;DHT22;4757;59.334;18.034;2023-04-12T01:15:59;7.30;99.90
9437;DHT22;4757;59.334;18.034;2023-04-12T01:18:32;7.20;99.90
9437;DHT22;4757;59.334;18.034;2023-04-12T01:21:13;7.10;99.90
9437;DHT22;4757;59.334;18.034;2023-04-12T01:29:15;7.00;99.90
9437;DHT22;4757;59.334;18.034;2023-04-12T01:32:01;7.00;99.90
9437;DHT22;4757;59.334;18.034;2023-04-12T01:34:30;6.90;99.90
9437;DHT22;4757;59.334;18.034;2023-04-12T01:37:01;6.90;99.90
9437;DHT22;4757;59.334;18.034;2023-04-12T01:39:29;6.90;99.90
9437;DHT22;4757;59.334;18.034;2023-04-12T01:41:58;6.90;99.90
9437;DHT22;4757;59.334;18.034;2023-04-12T01:44:25;6.90;99.90
9437;DHT22;4757;59.334;18.034;2023-04-12T01:46:52;6.90;99.90
9437;DHT22;4757;59.334;18.034;2023-04-12T01:49:20;6.90;99.90
9437;DHT22;4757;59.334;18.034;2023-04-12T01:52:06;7.00;99.90
9437;DHT22;4757;59.334;18.034;2023-04-12T01:54:37;6.90;99.90
9437;DHT22;4757;59.334;18.034;2023-04-12T01:57:05;6.90;99.90
9437;DHT22;4757;59.334;18.034;2023-04-12T01:59:40;6.90;99.90
9437;DHT22;4757;59.334;18.034;2023-04-12T02:02:10;6.80;99.90
9437;DHT22;4757;59.334;18.034;2023-04-12T02:04:38;6.80;99.90
9437;DHT22;4757;59.334;18.034;2023-04-12T02:07:05;6.80;99.90
9437;DHT22;4757;59.334;18.034;2023-04-12T02:09:36;6.70;99.90
9437;DHT22;4757;59.334;18.034;2023-04-12T02:12:08;6.80;99.90
9437;DHT22;4757;59.334;18.034;2023-04-12T02:14:35;6.80;99.90
9437;DHT22;4757;59.334;18.034;2023-04-12T02:17:03;6.80;99.90
9437;DHT22;4757;59.334;18.034;2023-04-12T02:19:30;6.70;99.90
9437;DHT22;4757;59.334;18.034;2023-04-12T02:21:58;6.70;99.90
9437;DHT22;4757;59.334;18.034;2023-04-12T02:24:25;6.80;99.90
9437;DHT22;4757;59.334;18.034;2023-04-12T02:26:53;6.70;99.90
9437;DHT22;4757;59.334;18.034;2023-04-12T02:29:20;6.80;99.90
9437;DHT22;4757;59.334;18.034;2023-04-12T02:31:47;6.90;99.90
9437;DHT22;4757;59.334;18.034;2023-04-12T02:34:14;6.90;99.90
9437;DHT22;4757;59.334;18.034;2023-04-12T02:36:47;6.90;99.90
9437;DHT22;4757;59.334;18.034;2023-04-12T02:39:15;6.90;99.90
9437;DHT22;4757;59.334;18.034;2023-04-12T02:41:48;6.90;99.90
9437;DHT22;4757;59.334;18.034;2023-04-12T02:44:15;6.90;99.90
9437;DHT22;4757;59.334;18.034;2023-04-12T02:46:42;6.80;99.90
9437;DHT22;4757;59.334;18.034;2023-04-12T02:49:09;6.80;99.90
9437;DHT22;4757;59.334;18.034;2023-04-12T02:51:36;6.80;99.90
9437;DHT22;4757;59.334;18.034;2023-04-12T02:54:04;6.80;99.90
9437;DHT22;4757;59.334;18.034;2023-04-12T02:56:34;6.70;99.90
9437;DHT22;4757;59.334;18.034;2023-04-12T02:59:01;6.70;99.90
9437;DHT22;4757;59.334;18.034;2023-04-12T03:01:28;6.70;99.90
9437;DHT22;4757;59.334;18.034;2023-04-12T03:03:55;6.70;99.90
9437;DHT22;4757;59.334;18.034;2023-04-12T03:06:23;6.70;99.90
9437;DHT22;4757;59.334;18.034;2023-04-12T03:08:50;6.70;99.90
9437;DHT22;4757;59.334;18.034;2023-04-12T03:11:17;6.60;99.90
9437;DHT22;4757;59.334;18.034;2023-04-12T03:13:44;6.60;99.90
9437;DHT22;4757;59.334;18.034;2023-04-12T03:16:22;6.60;99.90
9437;DHT22;4757;59.334;18.034;2023-04-12T03:18:49;6.60;99.90
9437;DHT22;4757;59.334;18.034;2023-04-12T03:21:17;6.50;99.90
9437;DHT22;4757;59.334;18.034;2023-04-12T03:23:44;6.50;99.90
9437;DHT22;4757;59.334;18.034;2023-04-12T03:26:12;6.50;99.90
9437;DHT22;4757;59.334;18.034;2023-04-12T03:28:40;6.60;99.90
9437;DHT22;4757;59.334;18.034;2023-04-12T03:31:07;6.50;99.90
9437;DHT22;4757;59.334;18.034;2023-04-12T03:33:34;6.50;99.90
9437;DHT22;4757;59.334;18.034;2023-04-12T03:36:01;6.30;99.90
9437;DHT22;4757;59.334;18.034;2023-04-12T03:38:28;6.30;99.90
9437;DHT22;4757;59.334;18.034;2023-04-12T03:40:56;6.30;99.90
9437;DHT22;4757;59.334;18.034;2023-04-12T03:43:23;6.30;99.90
9437;DHT22;4757;59.334;18.034;2023-04-12T03:45:49;6.30;99.90
9437;DHT22;4757;59.334;18.034;2023-04-12T03:48:17;6.30;99.90
9437;DHT22;4757;59.334;18.034;2023-04-12T03:50:44;6.30;99.90
9437;DHT22;4757;59.334;18.034;2023-04-12T03:53:11;6.30;99.90
9437;DHT22;4757;59.334;18.034;2023-04-12T03:55:38;6.30;99.90
9437;DHT22;4757;59.334;18.034;2023-04-12T03:58:05;6.30;99.90
9437;DHT22;4757;59.334;18.034;2023-04-12T04:00:32;6.30;99.90
9437;DHT22;4757;59.334;18.034;2023-04-12T04:02:59;6.30;99.90
9437;DHT22;4757;59.334;18.034;2023-04-12T04:05:29;6.40;99.90
9437;DHT22;4757;59.334;18.034;2023-04-12T04:07:57;6.30;99.90
9437;DHT22;4757;59.334;18.034;2023-04-12T04:10:28;6.30;99.90
9437;DHT22;4757;59.334;18.034;2023-04-12T04:12:55;6.30;99.90
9437;DHT22;4757;59.334;18.034;2023-04-12T04:15:24;6.30;99.90
9437;DHT22;4757;59.334;18.034;2023-04-12T04:17:51;6.40;99.90
9437;DHT22;4757;59.334;18.034;2023-04-12T04:20:19;6.40;99.90
9437;DHT22;4757;59.334;18.034;2023-04-12T04:22:46;6.30;99.90
9437;DHT22;4757;59.334;18.034;2023-04-12T04:25:18;6.30;99.90
9437;DHT22;4757;59.334;18.034;2023-04-12T04:27:45;6.30;99.90
9437;DHT22;4757;59.334;18.034;2023-04-12T04:30:12;6.40;99.90
9437;DHT22;4757;59.334;18.034;2023-04-12T04:32:41;6.40;99.90
9437;DHT22;4757;59.334;18.034;2023-04-12T04:35:08;6.30;99.90
9437;DHT22;4757;59.334;18.034;2023-04-12T04:37:35;6.30;99.90
9437;DHT22;4757;59.334;18.034;2023-04-12T04:40:03;6.30;99.90
9437;DHT22;4757;59.334;18.034;2023-04-12T04:42:34;6.20;99.90
9437;DHT22;4757;59.334;18.034;2023-04-12T04:45:02;6.30;99.90
9437;DHT22;4757;59.334;18.034;2023-04-12T04:47:30;6.40;99.90
9437;DHT22;4757;59.334;18.034;2023-04-12T04:49:59;6.40;99.90
9437;DHT22;4757;59.334;18.034;2023-04-12T04:52:26;6.40;99.90
9437;DHT22;4757;59.334;18.034;2023-04-12T04:54:53;6.40;99.90
9437;DHT22;4757;59.334;18.034;2023-04-12T04:57:23;6.40;99.90
9437;DHT22;4757;59.334;18.034;2023-04-12T04:59:52;6.40;99.90
9437;DHT22;4757;59.334;18.034;2023-04-12T05:02:19;6.50;99.90
9437;DHT22;4757;59.334;18.034;2023-04-12T05:04:47;6.50;99.90
9437;DHT22;4757;59.334;18.034;2023-04-12T05:07:14;6.60;99.90
9437;DHT22;4757;59.334;18.034;2023-04-12T05:09:41;6.60;99.90
9437;DHT22;4757;59.334;18.034;2023-04-12T05:12:08;6.60;99.90
9437;DHT22;4757;59.334;18.034;2023-04-12T05:14:35;6.60;99.90
9437;DHT22;4757;59.334;18.034;2023-04-12T05:17:15;6.50;99.90
9437;DHT22;4757;59.334;18.034;2023-04-12T05:19:42;6.50;99.90
9437;DHT22;4757;59.334;18.034;2023-04-12T05:22:10;6.60;99.90
9437;DHT22;4757;59.334;18.034;2023-04-12T05:24:38;6.60;99.90
9437;DHT22;4757;59.334;18.034;2023-04-12T05:27:05;6.60;99.90
9437;DHT22;4757;59.334;18.034;2023-04-12T05:29:32;6.60;99.90
9437;DHT22;4757;59.334;18.034;2023-04-12T05:31:59;6.60;99.90
9437;DHT22;4757;59.334;18.034;2023-04-12T05:34:26;6.60;99.90
9437;DHT22;4757;59.334;18.034;2023-04-12T05:36:53;6.60;99.90
9437;DHT22;4757;59.334;18.034;2023-04-12T05:39:21;6.70;99.90
9437;DHT22;4757;59.334;18.034;2023-04-12T05:41:48;6.80;99.90
9437;DHT22;4757;59.334;18.034;2023-04-12T05:44:15;6.90;99.90
9437;DHT22;4757;59.334;18.034;2023-04-12T05:46:42;7.00;99.90
9437;DHT22;4757;59.334;18.034;2023-04-12T05:49:09;7.00;99.90
9437;DHT22;4757;59.334;18.034;2023-04-12T05:51:36;7.10;99.90
9437;DHT22;4757;59.334;18.034;2023-04-12T05:54:07;7.00;99.90
9437;DHT22;4757;59.334;18.034;2023-04-12T05:56:34;7.10;99.90
9437;DHT22;4757;59.334;18.034;2023-04-12T05:59:01;7.20;99.90
9437;DHT22;4757;59.334;18.034;2023-04-12T06:01:29;7.30;99.90
9437;DHT22;4757;59.334;18.034;2023-04-12T06:03:59;7.30;99.90
9437;DHT22;4757;59.334;18.034;2023-04-12T06:06:28;7.40;99.90
9437;DHT22;4757;59.334;18.034;2023-04-12T06:08:56;7.60;99.90
9437;DHT22;4757;59.334;18.034;2023-04-12T06:11:26;7.60;99.90
9437;DHT22;4757;59.334;18.034;2023-04-12T06:13:53;7.70;99.90
9437;DHT22;4757;59.334;18.034;2023-04-12T06:16:21;7.70;99.90
9437;DHT22;4757;59.334;18.034;2023-04-12T06:18:48;7.80;99.90
9437;DHT22;4757;59.334;18.034;2023-04-12T06:21:15;8.00;99.90
9437;DHT22;4757;59.334;18.034;2023-04-12T06:23:42;8.70;99.90
9437;DHT22;4757;59.334;18.034;2023-04-12T06:26:09;9.60;99.90
9437;DHT22;4757;59.334;18.034;2023-04-12T06:28:36;9.60;99.90
9437;DHT22;4757;59.334;18.034;2023-04-12T06:31:03;9.50;99.90
9437;DHT22;4757;59.334;18.034;2023-04-12T06:33:30;9.60;99.90
9437;DHT22;4757;59.334;18.034;2023-04-12T06:35:59;10.00;99.90
9437;DHT22;4757;59.334;18.034;2023-04-12T06:38:26;9.50;99.90
9437;DHT22;4757;59.334;18.034;2023-04-12T06:40:53;9.60;99.90
9437;DHT22;4757;59.334;18.034;2023-04-12T06:43:20;10.10;99.90
9437;DHT22;4757;59.334;18.034;2023-04-12T06:45:48;10.30;99.90
9437;DHT22;4757;59.334;18.034;2023-04-12T06:48:15;10.50;99.90
9437;DHT22;4757;59.334;18.034;2023-04-12T06:50:44;10.80;99.90
9437;DHT22;4757;59.334;18.034;2023-04-12T06:53:14;10.60;99.90
9437;DHT22;4757;59.334;18.034;2023-04-12T06:55:41;10.30;99.90
9437;DHT22;4757;59.334;18.034;2023-04-12T06:58:08;10.40;99.90
9437;DHT22;4757;59.334;18.034;2023-04-12T07:00:35;10.50;99.90
9437;DHT22;4757;59.334;18.034;2023-04-12T07:03:03;10.60;99.90
9437;DHT22;4757;59.334;18.034;2023-04-12T07:05:37;10.40;99.90
9437;DHT22;4757;59.334;18.034;2023-04-12T07:08:06;10.70;99.90
9437;DHT22;4757;59.334;18.034;2023-04-12T07:10:33;10.90;99.90
9437;DHT22;4757;59.334;18.034;2023-04-12T07:13:01;10.80;99.90
9437;DHT22;4757;59.334;18.034;2023-04-12T07:15:32;11.20;99.90
9437;DHT22;4757;59.334;18.034;2023-04-12T07:18:00;11.20;99.90
9437;DHT22;4757;59.334;18.034;2023-04-12T07:20:27;10.90;99.90
9437;DHT22;4757;59.334;18.034;2023-04-12T07:22:54;10.90;99.90
9437;DHT22;4757;59.334;18.034;2023-04-12T07:25:21;11.40;99.90
9437;DHT22;4757;59.334;18.034;2023-04-12T07:27:48;11.40;99.90
9437;DHT22;4757;59.334;18.034;2023-04-12T07:30:17;11.80;99.90
9437;DHT22;4757;59.334;18.034;2023-04-12T07:32:44;12.00;99.90
9437;DHT22;4757;59.334;18.034;2023-04-12T07:35:12;11.90;99.90
9437;DHT22;4757;59.334;18.034;2023-04-12T07:37:39;12.00;99.90
9437;DHT22;4757;59.334;18.034;2023-04-12T07:40:06;12.30;99.90
9437;DHT22;4757;59.334;18.034;2023-04-12T07:42:33;12.20;99.90
9437;DHT22;4757;59.334;18.034;2023-04-12T07:45:00;11.90;99.90
9437;DHT22;4757;59.334;18.034;2023-04-12T07:47:29;12.10;99.90
9437;DHT22;4757;59.334;18.034;2023-04-12T07:49:56;12.10;99.90
9437;DHT22;4757;59.334;18.034;2023-04-12T07:52:24;12.30;99.90
9437;DHT22;4757;59.334;18.034;2023-04-12T07:54:51;12.40;99.90
9437;DHT22;4757;59.334;18.034;2023-04-12T07:57:18;12.50;99.90
9437;DHT22;4757;59.334;18.034;2023-04-12T07:59:45;12.00;99.90
9437;DHT22;4757;59.334;18.034;2023-04-12T08:02:12;12.30;99.90
9437;DHT22;4757;59.334;18.034;2023-04-12T08:04:39;12.50;99.90
9437;DHT22;4757;59.334;18.034;2023-04-12T08:07:10;12.60;99.90
9437;DHT22;4757;59.334;18.034;2023-04-12T08:09:38;12.70;99.90
9437;DHT22;4757;59.334;18.034;2023-04-12T08:12:05;12.80;99.90
9437;DHT22;4757;59.334;18.034;2023-04-12T08:14:32;13.50;99.90
9437;DHT22;4757;59.334;18.034;2023-04-12T08:16:59;13.10;99.90
9437;DHT22;4757;59.334;18.034;2023-04-12T08:19:27;13.50;99.90
9437;DHT22;4757;59.334;18.034;2023-04-12T08:21:54;13.60;99.90
9437;DHT22;4757;59.334;18.034;2023-04-12T08:24:25;13.70;99.90
9437;DHT22;4757;59.334;18.034;2023-04-12T08:26:52;13.60;99.90
9437;DHT22;4757;59.334;18.034;2023-04-12T08:29:21;13.90;99.90
9437;DHT22;4757;59.334;18.034;2023-04-12T08:31:50;14.60;99.90
9437;DHT22;4757;59.334;18.034;2023-04-12T08:34:18;14.10;99.90
9437;DHT22;4757;59.334;18.034;2023-04-12T08:36:46;14.20;99.90
9437;DHT22;4757;59.334;18.034;2023-04-12T08:39:13;14.20;99.90
9437;DHT22;4757;59.334;18.034;2023-04-12T08:41:40;14.00;99.90
9437;DHT22;4757;59.334;18.034;2023-04-12T08:44:10;14.40;99.90
9437;DHT22;4757;59.334;18.034;2023-04-12T08:46:37;14.30;99.90
9437;DHT22;4757;59.334;18.034;2023-04-12T08:49:04;14.30;99.90
9437;DHT22;4757;59.334;18.034;2023-04-12T08:51:31;14.60;99.90
9437;DHT22;4757;59.334;18.034;2023-04-12T08:53:59;14.10;99.90
9437;DHT22;4757;59.334;18.034;2023-04-12T08:56:26;14.30;99.90
9437;DHT22;4757;59.334;18.034;2023-04-12T08:58:54;14.40;99.90
9437;DHT22;4757;59.334;18.034;2023-04-12T09:01:24;14.50;99.90
9437;DHT22;4757;59.334;18.034;2023-04-12T09:03:51;14.90;99.90
9437;DHT22;4757;59.334;18.034;2023-04-12T09:06:18;15.00;99.90
9437;DHT22;4757;59.334;18.034;2023-04-12T09:08:53;15.20;99.90
9437;DHT22;4757;59.334;18.034;2023-04-12T09:11:21;15.50;99.90
9437;DHT22;4757;59.334;18.034;2023-04-12T09:13:50;15.20;99.90
9437;DHT22;4757;59.334;18.034;2023-04-12T09:16:17;15.20;99.90
9437;DHT22;4757;59.334;18.034;2023-04-12T09:18:59;15.10;99.90
9437;DHT22;4757;59.334;18.034;2023-04-12T09:21:28;15.50;99.90
9437;DHT22;4757;59.334;18.034;2023-04-12T09:26:30;16.30;99.90
9437;DHT22;4757;59.334;18.034;2023-04-12T09:28:57;16.20;99.90
9437;DHT22;4757;59.334;18.034;2023-04-12T09:31:24;15.90;99.90
9437;DHT22;4757;59.334;18.034;2023-04-12T09:34:07;16.30;99.90
9437;DHT22;4757;59.334;18.034;2023-04-12T09:36:38;16.20;99.90
9437;DHT22;4757;59.334;18.034;2023-04-12T09:39:06;16.40;99.90
9437;DHT22;4757;59.334;18.034;2023-04-12T09:41:33;16.30;99.90
9437;DHT22;4757;59.334;18.034;2023-04-12T09:44:00;16.30;99.90
9437;DHT22;4757;59.334;18.034;2023-04-12T09:46:28;16.50;99.90
9437;DHT22;4757;59.334;18.034;2023-04-12T09:48:56;16.30;99.90
9437;DHT22;4757;59.334;18.034;2023-04-12T09:51:33;16.20;99.90
9437;DHT22;4757;59.334;18.034;2023-04-12T09:54:03;16.10;99.90
9437;DHT22;4757;59.334;18.034;2023-04-12T09:56:35;16.10;99.90
9437;DHT22;4757;59.334;18.034;2023-04-12T09:59:06;16.10;99.90
9437;DHT22;4757;59.334;18.034;2023-04-12T10:01:35;16.20;99.90
9437;DHT22;4757;59.334;18.034;2023-04-12T10:04:04;16.30;99.90
9437;DHT22;4757;59.334;18.034;2023-04-12T10:06:33;16.00;99.90
9437;DHT22;4757;59.334;18.034;2023-04-12T10:09:04;16.20;99.90
9437;DHT22;4757;59.334;18.034;2023-04-12T10:11:32;16.50;99.90
9437;DHT22;4757;59.334;18.034;2023-04-12T10:14:01;15.70;99.90
9437;DHT22;4757;59.334;18.034;2023-04-12T10:16:29;16.00;99.90
9437;DHT22;4757;59.334;18.034;2023-04-12T10:19:01;16.10;99.90
9437;DHT22;4757;59.334;18.034;2023-04-12T10:21:29;16.30;99.90
9437;DHT22;4757;59.334;18.034;2023-04-12T10:23:57;16.30;99.90
9437;DHT22;4757;59.334;18.034;2023-04-12T10:26:24;16.90;99.90
9437;DHT22;4757;59.334;18.034;2023-04-12T10:29:27;16.10;99.90
9437;DHT22;4757;59.334;18.034;2023-04-12T10:31:56;16.10;99.90
9437;DHT22;4757;59.334;18.034;2023-04-12T10:34:27;15.90;99.90
9437;DHT22;4757;59.334;18.034;2023-04-12T10:36:57;16.00;99.90
9437;DHT22;4757;59.334;18.034;2023-04-12T10:39:39;15.90;99.90
9437;DHT22;4757;59.334;18.034;2023-04-12T10:42:16;15.60;99.90
9437;DHT22;4757;59.334;18.034;2023-04-12T10:44:44;15.80;99.90
9437;DHT22;4757;59.334;18.034;2023-04-12T10:47:11;16.20;99.90
9437;DHT22;4757;59.334;18.034;2023-04-12T10:49:38;16.10;99.90
9437;DHT22;4757;59.334;18.034;2023-04-12T10:54:35;16.40;99.90
9437;DHT22;4757;59.334;18.034;2023-04-12T10:57:03;16.30;99.90
9437;DHT22;4757;59.334;18.034;2023-04-12T11:02:17;16.10;99.90
9437;DHT22;4757;59.334;18.034;2023-04-12T11:05:06;16.00;99.90
9437;DHT22;4757;59.334;18.034;2023-04-12T11:07:40;15.20;99.90
9437;DHT22;4757;59.334;18.034;2023-04-12T11:10:15;15.00;99.90
9437;DHT22;4757;59.334;18.034;2023-04-12T11:12:51;14.90;99.90
9437;DHT22;4757;59.334;18.034;2023-04-12T11:15:25;14.90;99.90
9437;DHT22;4757;59.334;18.034;2023-04-12T11:17:57;15.00;99.90
9437;DHT22;4757;59.334;18.034;2023-04-12T11:20:26;14.70;99.90
9437;DHT22;4757;59.334;18.034;2023-04-12T11:22:54;15.10;99.90
9437;DHT22;4757;59.334;18.034;2023-04-12T11:25:21;15.10;99.90
9437;DHT22;4757;59.334;18.034;2023-04-12T11:27:52;14.80;99.90
9437;DHT22;4757;59.334;18.034;2023-04-12T11:30:20;15.00;99.90
9437;DHT22;4757;59.334;18.034;2023-04-12T11:32:49;14.70;99.90
9437;DHT22;4757;59.334;18.034;2023-04-12T11:35:16;14.90;99.90
9437;DHT22;4757;59.334;18.034;2023-04-12T11:37:46;14.90;99.90
9437;DHT22;4757;59.334;18.034;2023-04-12T11:40:13;14.70;99.90
9437;DHT22;4757;59.334;18.034;2023-04-12T11:42:40;14.70;99.90
9437;DHT22;4757;59.334;18.034;2023-04-12T11:45:08;14.70;99.90
9437;DHT22;4757;59.334;18.034;2023-04-12T11:47:44;14.80;99.90
9437;DHT22;4757;59.334;18.034;2023-04-12T11:50:26;14.60;99.90
9437;DHT22;4757;59.334;18.034;2023-04-12T11:52:53;14.50;99.90
9437;DHT22;4757;59.334;18.034;2023-04-12T11:55:20;14.30;99.90
9437;DHT22;4757;59.334;18.034;2023-04-12T11:57:52;14.40;99.90
9437;DHT22;4757;59.334;18.034;2023-04-12T12:00:24;14.50;99.90
9437;DHT22;4757;59.334;18.034;2023-04-12T12:02:53;14.30;99.90
9437;DHT22;4757;59.334;18.034;2023-04-12T12:05:34;14.60;99.90
9437;DHT22;4757;59.334;18.034;2023-04-12T12:08:03;14.90;99.90
9437;DHT22;4757;59.334;18.034;2023-04-12T12:10:37;15.10;99.90
9437;DHT22;4757;59.334;18.034;2023-04-12T12:13:25;15.10;99.90
9437;DHT22;4757;59.334;18.034;2023-04-12T12:15:52;15.10;99.90
9437;DHT22;4757;59.334;18.034;2023-04-12T12:18:24;15.20;99.90
9437;DHT22;4757;59.334;18.034;2023-04-12T12:20:55;15.20;99.90
9437;DHT22;4757;59.334;18.034;2023-04-12T12:23:30;15.30;99.90
9437;DHT22;4757;59.334;18.034;2023-04-12T12:25:59;15.20;99.90
9437;DHT22;4757;59.334;18.034;2023-04-12T12:28:49;15.50;99.90
9437;DHT22;4757;59.334;18.034;2023-04-12T12:31:19;15.80;99.90
9437;DHT22;4757;59.334;18.034;2023-04-12T12:33:48;15.90;99.90
9437;DHT22;4757;59.334;18.034;2023-04-12T12:36:18;15.90;99.90
9437;DHT22;4757;59.334;18.034;2023-04-12T12:38:52;15.70;99.90
9437;DHT22;4757;59.334;18.034;2023-04-12T12:41:23;16.50;99.90
9437;DHT22;4757;59.334;18.034;2023-04-12T12:43:51;16.00;99.90
9437;DHT22;4757;59.334;18.034;2023-04-12T12:46:19;15.60;99.90
9437;DHT22;4757;59.334;18.034;2023-04-12T12:48:47;16.10;99.90
9437;DHT22;4757;59.334;18.034;2023-04-12T12:51:15;16.30;99.90
9437;DHT22;4757;59.334;18.034;2023-04-12T12:53:48;16.40;99.90
9437;DHT22;4757;59.334;18.034;2023-04-12T12:56:15;16.20;99.90
9437;DHT22;4757;59.334;18.034;2023-04-12T12:58:42;16.30;99.90
9437;DHT22;4757;59.334;18.034;2023-04-12T13:01:09;16.00;99.90
9437;DHT22;4757;59.334;18.034;2023-04-12T13:03:37;15.60;99.90
9437;DHT22;4757;59.334;18.034;2023-04-12T13:06:04;16.00;99.90
9437;DHT22;4757;59.334;18.034;2023-04-12T13:08:31;16.30;99.90
9437;DHT22;4757;59.334;18.034;2023-04-12T13:11:01;15.70;99.90
9437;DHT22;4757;59.334;18.034;2023-04-12T13:13:27;15.30;99.90
9437;DHT22;4757;59.334;18.034;2023-04-12T13:15:55;15.70;99.90
9437;DHT22;4757;59.334;18.034;2023-04-12T13:18:22;15.30;99.90
9437;DHT22;4757;59.334;18.034;2023-04-12T13:20:49;15.20;99.90
9437;DHT22;4757;59.334;18.034;2023-04-12T13:23:16;15.40;99.90
9437;DHT22;4757;59.334;18.034;2023-04-12T13:25:43;15.40;99.90
9437;DHT22;4757;59.334;18.034;2023-04-12T13:28:10;15.50;99.90
9437;DHT22;4757;59.334;18.034;2023-04-12T13:30:38;14.90;99.90
9437;DHT22;4757;59.334;18.034;2023-04-12T13:33:05;15.00;99.90
9437;DHT22;4757;59.334;18.034;2023-04-12T13:35:33;14.80;99.90
9437;DHT22;4757;59.334;18.034;2023-04-12T13:38:00;15.10;99.90
9437;DHT22;4757;59.334;18.034;2023-04-12T13:40:27;14.60;99.90
9437;DHT22;4757;59.334;18.034;2023-04-12T13:42:54;14.40;99.90
9437;DHT22;4757;59.334;18.034;2023-04-12T13:45:21;14.70;99.90
9437;DHT22;4757;59.334;18.034;2023-04-12T13:47:48;14.60;99.90
9437;DHT22;4757;59.334;18.034;2023-04-12T13:50:15;14.30;99.90
9437;DHT22;4757;59.334;18.034;2023-04-12T13:52:42;14.30;99.90
9437;DHT22;4757;59.334;18.034;2023-04-12T13:55:09;14.50;99.90
9437;DHT22;4757;59.334;18.034;2023-04-12T13:57:36;14.30;99.90
9437;DHT22;4757;59.334;18.034;2023-04-12T14:00:04;14.20;99.90
9437;DHT22;4757;59.334;18.034;2023-04-12T14:02:31;14.70;99.90
9437;DHT22;4757;59.334;18.034;2023-04-12T14:04:58;14.70;99.90
9437;DHT22;4757;59.334;18.034;2023-04-12T14:07:26;14.70;99.90
9437;DHT22;4757;59.334;18.034;2023-04-12T14:09:55;14.50;99.90
9437;DHT22;4757;59.334;18.034;2023-04-12T14:12:23;14.40;99.90
9437;DHT22;4757;59.334;18.034;2023-04-12T14:14:50;14.70;99.90
9437;DHT22;4757;59.334;18.034;2023-04-12T14:17:17;14.30;99.90
9437;DHT22;4757;59.334;18.034;2023-04-12T14:19:44;13.80;99.90
9437;DHT22;4757;59.334;18.034;2023-04-12T14:22:11;13.80;99.90
9437;DHT22;4757;59.334;18.034;2023-04-12T14:24:38;13.80;99.90
9437;DHT22;4757;59.334;18.034;2023-04-12T14:27:08;13.50;99.90
9437;DHT22;4757;59.334;18.034;2023-04-12T14:29:35;13.20;99.90
9437;DHT22;4757;59.334;18.034;2023-04-12T14:32:02;13.20;99.90
9437;DHT22;4757;59.334;18.034;2023-04-12T14:34:29;13.20;99.90
9437;DHT22;4757;59.334;18.034;2023-04-12T14:36:56;13.10;99.90
9437;DHT22;4757;59.334;18.034;2023-04-12T14:39:23;13.20;99.90
9437;DHT22;4757;59.334;18.034;2023-04-12T14:41:51;13.20;99.90
9437;DHT22;4757;59.334;18.034;2023-04-12T14:44:18;13.00;99.90
9437;DHT22;4757;59.334;18.034;2023-04-12T14:46:48;13.10;99.90
9437;DHT22;4757;59.334;18.034;2023-04-12T14:49:15;12.60;99.90
9437;DHT22;4757;59.334;18.034;2023-04-12T14:51:42;12.50;99.90
9437;DHT22;4757;59.334;18.034;2023-04-12T14:54:09;12.40;99.90
9437;DHT22;4757;59.334;18.034;2023-04-12T14:56:36;12.10;99.90
9437;DHT22;4757;59.334;18.034;2023-04-12T14:59:16;12.10;99.90
9437;DHT22;4757;59.334;18.034;2023-04-12T15:01:43;12.20;99.90
9437;DHT22;4757;59.334;18.034;2023-04-12T15:04:13;12.00;99.90
9437;DHT22;4757;59.334;18.034;2023-04-12T15:06:41;12.00;99.90
9437;DHT22;4757;59.334;18.034;2023-04-12T15:09:08;11.70;99.90
9437;DHT22;4757;59.334;18.034;2023-04-12T15:11:36;11.60;99.90
9437;DHT22;4757;59.334;18.034;2023-04-12T15:14:04;11.70;99.90
9437;DHT22;4757;59.334;18.034;2023-04-12T15:16:33;11.60;99.90
9437;DHT22;4757;59.334;18.034;2023-04-12T15:19:01;11.60;99.90
9437;DHT22;4757;59.334;18.034;2023-04-12T15:21:36;11.60;99.90
9437;DHT22;4757;59.334;18.034;2023-04-12T15:24:03;11.50;99.90
9437;DHT22;4757;59.334;18.034;2023-04-12T15:26:32;11.70;99.90
9437;DHT22;4757;59.334;18.034;2023-04-12T15:28:59;11.60;99.90
9437;DHT22;4757;59.334;18.034;2023-04-12T15:31:26;11.40;99.90
9437;DHT22;4757;59.334;18.034;2023-04-12T15:33:54;11.40;99.90
9437;DHT22;4757;59.334;18.034;2023-04-12T15:36:23;11.40;99.90
9437;DHT22;4757;59.334;18.034;2023-04-12T15:38:59;11.40;99.90
9437;DHT22;4757;59.334;18.034;2023-04-12T15:41:32;11.40;99.90
9437;DHT22;4757;59.334;18.034;2023-04-12T15:44:00;11.40;99.90
9437;DHT22;4757;59.334;18.034;2023-04-12T15:46:27;11.50;99.90
9437;DHT22;4757;59.334;18.034;2023-04-12T15:48:55;11.50;99.90
9437;DHT22;4757;59.334;18.034;2023-04-12T15:51:29;11.40;99.90
9437;DHT22;4757;59.334;18.034;2023-04-12T15:53:56;11.40;99.90
9437;DHT22;4757;59.334;18.034;2023-04-12T15:56:23;11.30;99.90
9437;DHT22;4757;59.334;18.034;2023-04-12T15:58:51;11.40;99.90
9437;DHT22;4757;59.334;18.034;2023-04-12T16:01:19;11.50;99.90
9437;DHT22;4757;59.334;18.034;2023-04-12T16:03:46;11.50;99.90
9437;DHT22;4757;59.334;18.034;2023-04-12T16:06:17;11.60;99.90
9437;DHT22;4757;59.334;18.034;2023-04-12T16:08:51;11.50;99.90
9437;DHT22;4757;59.334;18.034;2023-04-12T16:11:21;11.40;99.90
9437;DHT22;4757;59.334;18.034;2023-04-12T16:13:50;11.60;99.90
9437;DHT22;4757;59.334;18.034;2023-04-12T16:16:22;11.60;99.90
9437;DHT22;4757;59.334;18.034;2023-04-12T16:18:50;11.50;99.90
9437;DHT22;4757;59.334;18.034;2023-04-12T16:21:21;11.30;99.90